sensor_id;sensor_type;location;lat;lon;timestamp;P1;P2;P0
60816;PMS5003;51921;51.518;-3.188;2022-07-23T00:00:37;9;9;
60816;PMS5003;51921;51.518;-3.188;2022-07-23T00:03:03;13;12;
60816;PMS5003;51921;51.518;-3.188;2022-07-23T00:05:28;12;12;
60816;PMS5003;51921;51.518;-3.188;2022-07-23T00:07:53;12;12;
60816;PMS5003;51921;51.518;-3.188;2022-07-23T00:10:19;12;12;
60816;PMS5003;51921;51.518;-3.188;2022-07-23T00:12:44;14;14;
60816;PMS5003;51921;51.518;-3.188;2022-07-23T00:15:09;14;14;
60816;PMS5003;51921;51.518;-3.188;2022-07-23T00:17:34;16;14;
60816;PMS5003;51921;51.518;-3.188;2022-07-23T00:19:59;18;18;
60816;PMS5003;51921;51.518;-3.188;2022-07-23T00:22:25;12;12;
60816;PMS5003;51921;51.518;-3.188;2022-07-23T00:24:50;13;12;
60816;PMS5003;51921;51.518;-3.188;2022-07-23T00:27:16;17;17;
60816;PMS5003;51921;51.518;-3.188;2022-07-23T00:29:41;14;14;
60816;PMS5003;51921;51.518;-3.188;2022-07-23T00:32:06;13;12;
60816;PMS5003;51921;51.518;-3.188;2022-07-23T00:34:31;11;11;
60816;PMS5003;51921;51.518;-3.188;2022-07-23T00:36:57;14;14;
60816;PMS5003;51921;51.518;-3.188;2022-07-23T00:39:22;11;10;
60816;PMS5003;51921;51.518;-3.188;2022-07-23T00:41:48;13;13;
60816;PMS5003;51921;51.518;-3.188;2022-07-23T00:44:14;12;12;
60816;PMS5003;51921;51.518;-3.188;2022-07-23T00:46:44;12;12;
60816;PMS5003;51921;51.518;-3.188;2022-07-23T00:49:04;10;10;
60816;PMS5003;51921;51.518;-3.188;2022-07-23T00:51:29;10;9;
60816;PMS5003;51921;51.518;-3.188;2022-07-23T00:53:55;14;14;
60816;PMS5003;51921;51.518;-3.188;2022-07-23T00:56:20;11;10;
60816;PMS5003;51921;51.518;-3.188;2022-07-23T00:58:46;12;12;
60816;PMS5003;51921;51.518;-3.188;2022-07-23T01:01:11;10;10;
60816;PMS5003;51921;51.518;-3.188;2022-07-23T01:03:36;10;10;
60816;PMS5003;51921;51.518;-3.188;2022-07-23T01:06:02;12;12;
60816;PMS5003;51921;51.518;-3.188;2022-07-23T01:08:27;11;11;
60816;PMS5003;51921;51.518;-3.188;2022-07-23T01:10:52;14;13;
60816;PMS5003;51921;51.518;-3.188;2022-07-23T01:13:18;12;12;
60816;PMS5003;51921;51.518;-3.188;2022-07-23T01:15:43;11;11;
60816;PMS5003;51921;51.518;-3.188;2022-07-23T01:18:09;11;11;
60816;PMS5003;51921;51.518;-3.188;2022-07-23T01:20:34;13;12;
60816;PMS5003;51921;51.518;-3.188;2022-07-23T01:22:59;10;10;
60816;PMS5003;51921;51.518;-3.188;2022-07-23T01:25:25;11;11;
60816;PMS5003;51921;51.518;-3.188;2022-07-23T01:27:51;12;11;
60816;PMS5003;51921;51.518;-3.188;2022-07-23T01:30:15;12;12;
60816;PMS5003;51921;51.518;-3.188;2022-07-23T01:32:41;11;11;
60816;PMS5003;51921;51.518;-3.188;2022-07-23T01:35:07;11;11;
60816;PMS5003;51921;51.518;-3.188;2022-07-23T01:37:32;13;11;
60816;PMS5003;51921;51.518;-3.188;2022-07-23T01:39:57;9;9;
60816;PMS5003;51921;51.518;-3.188;2022-07-23T01:42:22;12;11;
60816;PMS5003;51921;51.518;-3.188;2022-07-23T01:44:48;12;12;
60816;PMS5003;51921;51.518;-3.188;2022-07-23T01:47:13;10;10;
60816;PMS5003;51921;51.518;-3.188;2022-07-23T01:49:39;11;11;
60816;PMS5003;51921;51.518;-3.188;2022-07-23T01:52:04;10;10;
60816;PMS5003;51921;51.518;-3.188;2022-07-23T01:54:30;14;13;
60816;PMS5003;51921;51.518;-3.188;2022-07-23T01:56:55;13;13;
60816;PMS5003;51921;51.518;-3.188;2022-07-23T01:59:21;9;9;
60816;PMS5003;51921;51.518;-3.188;2022-07-23T02:01:46;13;13;
60816;PMS5003;51921;51.518;-3.188;2022-07-23T02:04:12;13;12;
60816;PMS5003;51921;51.518;-3.188;2022-07-23T02:06:37;11;11;
60816;PMS5003;51921;51.518;-3.188;2022-07-23T02:09:02;11;10;
60816;PMS5003;51921;51.518;-3.188;2022-07-23T02:11:28;9;9;
60816;PMS5003;51921;51.518;-3.188;2022-07-23T02:13:53;10;9;
60816;PMS5003;51921;51.518;-3.188;2022-07-23T02:16:18;11;9;
60816;PMS5003;51921;51.518;-3.188;2022-07-23T02:18:44;6;6;
60816;PMS5003;51921;51.518;-3.188;2022-07-23T02:21:09;10;10;
60816;PMS5003;51921;51.518;-3.188;2022-07-23T02:23:35;10;10;
60816;PMS5003;51921;51.518;-3.188;2022-07-23T02:26:00;12;10;
60816;PMS5003;51921;51.518;-3.188;2022-07-23T02:28:25;12;11;
60816;PMS5003;51921;51.518;-3.188;2022-07-23T02:30:50;11;11;
60816;PMS5003;51921;51.518;-3.188;2022-07-23T02:33:16;12;11;
60816;PMS5003;51921;51.518;-3.188;2022-07-23T02:35:41;7;7;
60816;PMS5003;51921;51.518;-3.188;2022-07-23T02:38:07;8;8;
60816;PMS5003;51921;51.518;-3.188;2022-07-23T02:40:32;10;9;
60816;PMS5003;51921;51.518;-3.188;2022-07-23T02:42:57;9;9;
60816;PMS5003;51921;51.518;-3.188;2022-07-23T02:45:23;9;8;
60816;PMS5003;51921;51.518;-3.188;2022-07-23T02:47:48;8;8;
60816;PMS5003;51921;51.518;-3.188;2022-07-23T02:50:13;8;8;
60816;PMS5003;51921;51.518;-3.188;2022-07-23T02:52:39;8;8;
60816;PMS5003;51921;51.518;-3.188;2022-07-23T02:55:05;7;7;
60816;PMS5003;51921;51.518;-3.188;2022-07-23T02:57:30;9;9;
60816;PMS5003;51921;51.518;-3.188;2022-07-23T02:59:55;9;9;
60816;PMS5003;51921;51.518;-3.188;2022-07-23T03:02:21;8;8;
60816;PMS5003;51921;51.518;-3.188;2022-07-23T03:04:46;6;6;
60816;PMS5003;51921;51.518;-3.188;2022-07-23T03:07:12;8;8;
60816;PMS5003;51921;51.518;-3.188;2022-07-23T03:09:37;10;10;
60816;PMS5003;51921;51.518;-3.188;2022-07-23T03:12:03;6;6;
60816;PMS5003;51921;51.518;-3.188;2022-07-23T03:14:28;8;8;
60816;PMS5003;51921;51.518;-3.188;2022-07-23T03:16:53;6;6;
60816;PMS5003;51921;51.518;-3.188;2022-07-23T03:19:18;7;7;
60816;PMS5003;51921;51.518;-3.188;2022-07-23T03:21:44;7;6;
60816;PMS5003;51921;51.518;-3.188;2022-07-23T03:24:09;7;6;
60816;PMS5003;51921;51.518;-3.188;2022-07-23T03:26:35;6;6;
60816;PMS5003;51921;51.518;-3.188;2022-07-23T03:29:00;6;6;
60816;PMS5003;51921;51.518;-3.188;2022-07-23T03:31:26;6;6;
60816;PMS5003;51921;51.518;-3.188;2022-07-23T03:33:51;7;6;
60816;PMS5003;51921;51.518;-3.188;2022-07-23T03:36:16;7;7;
60816;PMS5003;51921;51.518;-3.188;2022-07-23T03:38:42;5;4;
60816;PMS5003;51921;51.518;-3.188;2022-07-23T03:41:07;5;5;
60816;PMS5003;51921;51.518;-3.188;2022-07-23T03:43:33;6;6;
60816;PMS5003;51921;51.518;-3.188;2022-07-23T03:45:58;6;6;
60816;PMS5003;51921;51.518;-3.188;2022-07-23T03:48:23;6;6;
60816;PMS5003;51921;51.518;-3.188;2022-07-23T03:50:49;8;8;
60816;PMS5003;51921;51.518;-3.188;2022-07-23T03:53:14;7;7;
60816;PMS5003;51921;51.518;-3.188;2022-07-23T03:55:40;8;6;
60816;PMS5003;51921;51.518;-3.188;2022-07-23T03:58:05;6;6;
60816;PMS5003;51921;51.518;-3.188;2022-07-23T04:00:31;8;7;
60816;PMS5003;51921;51.518;-3.188;2022-07-23T04:02:56;7;6;
60816;PMS5003;51921;51.518;-3.188;2022-07-23T04:05:22;6;6;
60816;PMS5003;51921;51.518;-3.188;2022-07-23T04:07:47;7;7;
60816;PMS5003;51921;51.518;-3.188;2022-07-23T04:10:12;8;7;
60816;PMS5003;51921;51.518;-3.188;2022-07-23T04:12:38;6;6;
60816;PMS5003;51921;51.518;-3.188;2022-07-23T04:15:04;6;6;
60816;PMS5003;51921;51.518;-3.188;2022-07-23T04:17:29;6;6;
60816;PMS5003;51921;51.518;-3.188;2022-07-23T04:19:54;6;6;
60816;PMS5003;51921;51.518;-3.188;2022-07-23T04:22:20;4;4;
60816;PMS5003;51921;51.518;-3.188;2022-07-23T04:24:45;7;7;
60816;PMS5003;51921;51.518;-3.188;2022-07-23T04:27:11;8;8;
60816;PMS5003;51921;51.518;-3.188;2022-07-23T04:29:36;8;8;
60816;PMS5003;51921;51.518;-3.188;2022-07-23T04:32:01;7;7;
60816;PMS5003;51921;51.518;-3.188;2022-07-23T04:34:27;6;6;
60816;PMS5003;51921;51.518;-3.188;2022-07-23T04:36:53;6;6;
60816;PMS5003;51921;51.518;-3.188;2022-07-23T04:39:18;7;7;
60816;PMS5003;51921;51.518;-3.188;2022-07-23T04:41:43;10;8;
60816;PMS5003;51921;51.518;-3.188;2022-07-23T04:44:11;6;6;
60816;PMS5003;51921;51.518;-3.188;2022-07-23T04:46:34;8;8;
60816;PMS5003;51921;51.518;-3.188;2022-07-23T04:48:59;8;7;
60816;PMS5003;51921;51.518;-3.188;2022-07-23T04:51:25;8;7;
60816;PMS5003;51921;51.518;-3.188;2022-07-23T04:53:50;7;7;
60816;PMS5003;51921;51.518;-3.188;2022-07-23T04:56:16;7;7;
60816;PMS5003;51921;51.518;-3.188;2022-07-23T04:58:41;6;6;
60816;PMS5003;51921;51.518;-3.188;2022-07-23T05:01:07;8;7;
60816;PMS5003;51921;51.518;-3.188;2022-07-23T05:03:32;9;9;
60816;PMS5003;51921;51.518;-3.188;2022-07-23T05:05:57;6;6;
60816;PMS5003;51921;51.518;-3.188;2022-07-23T05:08:23;8;8;
60816;PMS5003;51921;51.518;-3.188;2022-07-23T05:10:48;7;6;
60816;PMS5003;51921;51.518;-3.188;2022-07-23T05:13:14;6;6;
60816;PMS5003;51921;51.518;-3.188;2022-07-23T05:15:39;6;6;
60816;PMS5003;51921;51.518;-3.188;2022-07-23T05:18:05;9;8;
60816;PMS5003;51921;51.518;-3.188;2022-07-23T05:20:30;6;6;
60816;PMS5003;51921;51.518;-3.188;2022-07-23T05:22:55;6;6;
60816;PMS5003;51921;51.518;-3.188;2022-07-23T05:25:21;6;6;
60816;PMS5003;51921;51.518;-3.188;2022-07-23T05:27:46;5;5;
60816;PMS5003;51921;51.518;-3.188;2022-07-23T05:30:12;6;6;
60816;PMS5003;51921;51.518;-3.188;2022-07-23T05:32:37;6;6;
60816;PMS5003;51921;51.518;-3.188;2022-07-23T05:35:03;8;8;
60816;PMS5003;51921;51.518;-3.188;2022-07-23T05:37:28;6;6;
60816;PMS5003;51921;51.518;-3.188;2022-07-23T05:39:53;8;7;
60816;PMS5003;51921;51.518;-3.188;2022-07-23T05:42:19;7;7;
60816;PMS5003;51921;51.518;-3.188;2022-07-23T05:44:47;8;8;
60816;PMS5003;51921;51.518;-3.188;2022-07-23T05:47:09;8;8;
60816;PMS5003;51921;51.518;-3.188;2022-07-23T05:49:36;7;7;
60816;PMS5003;51921;51.518;-3.188;2022-07-23T05:52:03;8;8;
60816;PMS5003;51921;51.518;-3.188;2022-07-23T05:54:26;7;6;
60816;PMS5003;51921;51.518;-3.188;2022-07-23T05:56:51;8;8;
60816;PMS5003;51921;51.518;-3.188;2022-07-23T05:59:16;6;6;
60816;PMS5003;51921;51.518;-3.188;2022-07-23T06:01:42;6;6;
60816;PMS5003;51921;51.518;-3.188;2022-07-23T06:04:07;7;7;
60816;PMS5003;51921;51.518;-3.188;2022-07-23T06:06:36;8;7;
60816;PMS5003;51921;51.518;-3.188;2022-07-23T06:08:58;8;7;
60816;PMS5003;51921;51.518;-3.188;2022-07-23T06:11:24;9;9;
60816;PMS5003;51921;51.518;-3.188;2022-07-23T06:13:49;7;7;
60816;PMS5003;51921;51.518;-3.188;2022-07-23T06:16:14;10;7;
60816;PMS5003;51921;51.518;-3.188;2022-07-23T06:18:40;8;7;
60816;PMS5003;51921;51.518;-3.188;2022-07-23T06:21:05;8;8;
60816;PMS5003;51921;51.518;-3.188;2022-07-23T06:23:31;8;8;
60816;PMS5003;51921;51.518;-3.188;2022-07-23T06:25:56;9;9;
60816;PMS5003;51921;51.518;-3.188;2022-07-23T06:28:25;10;9;
60816;PMS5003;51921;51.518;-3.188;2022-07-23T06:30:50;8;7;
60816;PMS5003;51921;51.518;-3.188;2022-07-23T06:33:12;9;9;
60816;PMS5003;51921;51.518;-3.188;2022-07-23T06:35:38;9;8;
60816;PMS5003;51921;51.518;-3.188;2022-07-23T06:38:03;10;9;
60816;PMS5003;51921;51.518;-3.188;2022-07-23T06:40:28;9;9;
60816;PMS5003;51921;51.518;-3.188;2022-07-23T06:42:53;9;8;
60816;PMS5003;51921;51.518;-3.188;2022-07-23T06:45:19;7;7;
60816;PMS5003;51921;51.518;-3.188;2022-07-23T06:47:44;9;9;
60816;PMS5003;51921;51.518;-3.188;2022-07-23T06:50:09;7;7;
60816;PMS5003;51921;51.518;-3.188;2022-07-23T06:52:35;7;7;
60816;PMS5003;51921;51.518;-3.188;2022-07-23T06:55:00;7;7;
60816;PMS5003;51921;51.518;-3.188;2022-07-23T06:57:26;7;7;
60816;PMS5003;51921;51.518;-3.188;2022-07-23T06:59:51;8;8;
60816;PMS5003;51921;51.518;-3.188;2022-07-23T07:02:20;10;9;
60816;PMS5003;51921;51.518;-3.188;2022-07-23T07:04:41;10;8;
60816;PMS5003;51921;51.518;-3.188;2022-07-23T07:07:07;8;8;
60816;PMS5003;51921;51.518;-3.188;2022-07-23T07:09:36;7;7;
60816;PMS5003;51921;51.518;-3.188;2022-07-23T07:11:58;8;7;
60816;PMS5003;51921;51.518;-3.188;2022-07-23T07:14:23;8;8;
60816;PMS5003;51921;51.518;-3.188;2022-07-23T07:16:48;6;6;
60816;PMS5003;51921;51.518;-3.188;2022-07-23T07:19:14;7;7;
60816;PMS5003;51921;51.518;-3.188;2022-07-23T07:21:39;8;6;
60816;PMS5003;51921;51.518;-3.188;2022-07-23T07:24:05;5;4;
60816;PMS5003;51921;51.518;-3.188;2022-07-23T07:26:30;5;5;
60816;PMS5003;51921;51.518;-3.188;2022-07-23T07:28:55;5;5;
60816;PMS5003;51921;51.518;-3.188;2022-07-23T07:31:21;6;5;
60816;PMS5003;51921;51.518;-3.188;2022-07-23T07:33:46;4;4;
60816;PMS5003;51921;51.518;-3.188;2022-07-23T07:36:12;6;5;
60816;PMS5003;51921;51.518;-3.188;2022-07-23T07:38:37;4;3;
60816;PMS5003;51921;51.518;-3.188;2022-07-23T07:41:04;5;5;
60816;PMS5003;51921;51.518;-3.188;2022-07-23T07:43:28;3;3;
60816;PMS5003;51921;51.518;-3.188;2022-07-23T07:45:53;6;6;
60816;PMS5003;51921;51.518;-3.188;2022-07-23T07:48:19;8;7;
60816;PMS5003;51921;51.518;-3.188;2022-07-23T07:50:48;6;6;
60816;PMS5003;51921;51.518;-3.188;2022-07-23T07:53:10;7;7;
60816;PMS5003;51921;51.518;-3.188;2022-07-23T07:55:35;6;6;
60816;PMS5003;51921;51.518;-3.188;2022-07-23T07:58:00;8;8;
60816;PMS5003;51921;51.518;-3.188;2022-07-23T08:00:26;7;7;
60816;PMS5003;51921;51.518;-3.188;2022-07-23T08:02:52;7;6;
60816;PMS5003;51921;51.518;-3.188;2022-07-23T08:05:21;8;8;
60816;PMS5003;51921;51.518;-3.188;2022-07-23T08:07:42;7;7;
60816;PMS5003;51921;51.518;-3.188;2022-07-23T08:10:11;9;9;
60816;PMS5003;51921;51.518;-3.188;2022-07-23T08:12:40;7;7;
60816;PMS5003;51921;51.518;-3.188;2022-07-23T08:14:58;6;5;
60816;PMS5003;51921;51.518;-3.188;2022-07-23T08:17:24;6;5;
60816;PMS5003;51921;51.518;-3.188;2022-07-23T08:19:52;3;3;
60816;PMS5003;51921;51.518;-3.188;2022-07-23T08:22:14;3;3;
60816;PMS5003;51921;51.518;-3.188;2022-07-23T08:24:40;4;4;
60816;PMS5003;51921;51.518;-3.188;2022-07-23T08:27:05;4;4;
60816;PMS5003;51921;51.518;-3.188;2022-07-23T08:29:30;5;4;
60816;PMS5003;51921;51.518;-3.188;2022-07-23T08:31:56;8;7;
60816;PMS5003;51921;51.518;-3.188;2022-07-23T08:34:21;5;5;
60816;PMS5003;51921;51.518;-3.188;2022-07-23T08:36:47;5;5;
60816;PMS5003;51921;51.518;-3.188;2022-07-23T08:39:12;5;5;
60816;PMS5003;51921;51.518;-3.188;2022-07-23T08:41:38;5;5;
60816;PMS5003;51921;51.518;-3.188;2022-07-23T08:44:03;5;5;
60816;PMS5003;51921;51.518;-3.188;2022-07-23T08:46:28;5;5;
60816;PMS5003;51921;51.518;-3.188;2022-07-23T08:48:53;6;6;
60816;PMS5003;51921;51.518;-3.188;2022-07-23T08:51:19;6;6;
60816;PMS5003;51921;51.518;-3.188;2022-07-23T08:53:44;7;6;
60816;PMS5003;51921;51.518;-3.188;2022-07-23T08:56:10;6;6;
60816;PMS5003;51921;51.518;-3.188;2022-07-23T08:58:35;6;6;
60816;PMS5003;51921;51.518;-3.188;2022-07-23T09:01:01;6;5;
60816;PMS5003;51921;51.518;-3.188;2022-07-23T09:03:27;7;7;
60816;PMS5003;51921;51.518;-3.188;2022-07-23T09:05:51;6;6;
60816;PMS5003;51921;51.518;-3.188;2022-07-23T09:08:21;7;7;
60816;PMS5003;51921;51.518;-3.188;2022-07-23T09:10:43;6;6;
60816;PMS5003;51921;51.518;-3.188;2022-07-23T09:13:10;6;6;
60816;PMS5003;51921;51.518;-3.188;2022-07-23T09:15:33;7;7;
60816;PMS5003;51921;51.518;-3.188;2022-07-23T09:17:58;7;6;
60816;PMS5003;51921;51.518;-3.188;2022-07-23T09:20:24;6;6;
60816;PMS5003;51921;51.518;-3.188;2022-07-23T09:22:49;7;7;
60816;PMS5003;51921;51.518;-3.188;2022-07-23T09:25:16;5;5;
60816;PMS5003;51921;51.518;-3.188;2022-07-23T09:27:46;8;8;
60816;PMS5003;51921;51.518;-3.188;2022-07-23T09:30:10;7;7;
60816;PMS5003;51921;51.518;-3.188;2022-07-23T09:32:31;5;5;
60816;PMS5003;51921;51.518;-3.188;2022-07-23T09:34:56;5;5;
60816;PMS5003;51921;51.518;-3.188;2022-07-23T09:37:22;6;6;
60816;PMS5003;51921;51.518;-3.188;2022-07-23T09:39:47;8;8;
60816;PMS5003;51921;51.518;-3.188;2022-07-23T09:42:13;4;4;
60816;PMS5003;51921;51.518;-3.188;2022-07-23T09:44:42;4;4;
60816;PMS5003;51921;51.518;-3.188;2022-07-23T09:47:07;6;6;
60816;PMS5003;51921;51.518;-3.188;2022-07-23T09:49:29;5;5;
60816;PMS5003;51921;51.518;-3.188;2022-07-23T09:51:55;6;6;
60816;PMS5003;51921;51.518;-3.188;2022-07-23T09:54:22;6;5;
60816;PMS5003;51921;51.518;-3.188;2022-07-23T09:56:45;4;4;
60816;PMS5003;51921;51.518;-3.188;2022-07-23T09:59:10;3;3;
60816;PMS5003;51921;51.518;-3.188;2022-07-23T10:01:36;4;4;
60816;PMS5003;51921;51.518;-3.188;2022-07-23T10:04:01;5;5;
60816;PMS5003;51921;51.518;-3.188;2022-07-23T10:06:26;5;5;
60816;PMS5003;51921;51.518;-3.188;2022-07-23T10:08:52;6;6;
60816;PMS5003;51921;51.518;-3.188;2022-07-23T10:11:17;5;5;
60816;PMS5003;51921;51.518;-3.188;2022-07-23T10:13:43;5;5;
60816;PMS5003;51921;51.518;-3.188;2022-07-23T10:16:08;5;5;
60816;PMS5003;51921;51.518;-3.188;2022-07-23T10:18:34;5;4;
60816;PMS5003;51921;51.518;-3.188;2022-07-23T10:20:59;4;4;
60816;PMS5003;51921;51.518;-3.188;2022-07-23T10:23:27;4;4;
60816;PMS5003;51921;51.518;-3.188;2022-07-23T10:25:51;5;5;
60816;PMS5003;51921;51.518;-3.188;2022-07-23T10:28:21;4;4;
60816;PMS5003;51921;51.518;-3.188;2022-07-23T10:30:43;3;3;
60816;PMS5003;51921;51.518;-3.188;2022-07-23T10:33:11;5;5;
60816;PMS5003;51921;51.518;-3.188;2022-07-23T10:35:33;4;4;
60816;PMS5003;51921;51.518;-3.188;2022-07-23T10:38:00;5;5;
60816;PMS5003;51921;51.518;-3.188;2022-07-23T10:40:22;4;4;
60816;PMS5003;51921;51.518;-3.188;2022-07-23T10:42:48;5;5;
60816;PMS5003;51921;51.518;-3.188;2022-07-23T10:47:38;5;5;
60816;PMS5003;51921;51.518;-3.188;2022-07-23T10:52:29;3;3;
60816;PMS5003;51921;51.518;-3.188;2022-07-23T10:54:55;4;4;
60816;PMS5003;51921;51.518;-3.188;2022-07-23T10:57:20;3;3;
60816;PMS5003;51921;51.518;-3.188;2022-07-23T11:07:06;5;5;
60816;PMS5003;51921;51.518;-3.188;2022-07-23T11:09:27;5;5;
60816;PMS5003;51921;51.518;-3.188;2022-07-23T11:16:46;6;6;
60816;PMS5003;51921;51.518;-3.188;2022-07-23T11:19:08;6;6;
60816;PMS5003;51921;51.518;-3.188;2022-07-23T11:23:59;5;5;
60816;PMS5003;51921;51.518;-3.188;2022-07-23T11:28:50;5;5;
60816;PMS5003;51921;51.518;-3.188;2022-07-23T11:31:17;5;5;
60816;PMS5003;51921;51.518;-3.188;2022-07-23T11:33:40;5;5;
60816;PMS5003;51921;51.518;-3.188;2022-07-23T11:36:06;3;3;
60816;PMS5003;51921;51.518;-3.188;2022-07-23T11:38:31;6;6;
60816;PMS5003;51921;51.518;-3.188;2022-07-23T11:40:56;6;5;
60816;PMS5003;51921;51.518;-3.188;2022-07-23T11:43:22;5;4;
60816;PMS5003;51921;51.518;-3.188;2022-07-23T11:45:48;3;2;
60816;PMS5003;51921;51.518;-3.188;2022-07-23T11:48:16;7;7;
60816;PMS5003;51921;51.518;-3.188;2022-07-23T11:50:38;7;6;
60816;PMS5003;51921;51.518;-3.188;2022-07-23T11:53:03;6;5;
60816;PMS5003;51921;51.518;-3.188;2022-07-23T11:55:29;4;4;
60816;PMS5003;51921;51.518;-3.188;2022-07-23T11:57:54;5;5;
60816;PMS5003;51921;51.518;-3.188;2022-07-23T12:00:20;7;7;
60816;PMS5003;51921;51.518;-3.188;2022-07-23T12:02:46;7;6;
60816;PMS5003;51921;51.518;-3.188;2022-07-23T12:05:11;6;6;
60816;PMS5003;51921;51.518;-3.188;2022-07-23T12:07:36;5;5;
60816;PMS5003;51921;51.518;-3.188;2022-07-23T12:10:03;8;8;
60816;PMS5003;51921;51.518;-3.188;2022-07-23T12:12:26;5;4;
60816;PMS5003;51921;51.518;-3.188;2022-07-23T12:14:56;7;7;
60816;PMS5003;51921;51.518;-3.188;2022-07-23T12:17:21;6;6;
60816;PMS5003;51921;51.518;-3.188;2022-07-23T12:19:42;9;9;
60816;PMS5003;51921;51.518;-3.188;2022-07-23T12:22:08;7;7;
60816;PMS5003;51921;51.518;-3.188;2022-07-23T12:31:49;7;6;
60816;PMS5003;51921;51.518;-3.188;2022-07-23T12:34:14;10;10;
60816;PMS5003;51921;51.518;-3.188;2022-07-23T12:36:40;6;6;
60816;PMS5003;51921;51.518;-3.188;2022-07-23T12:39:05;6;6;
60816;PMS5003;51921;51.518;-3.188;2022-07-23T12:43:56;6;6;
60816;PMS5003;51921;51.518;-3.188;2022-07-23T12:46:21;7;7;
60816;PMS5003;51921;51.518;-3.188;2022-07-23T12:48:52;6;6;
60816;PMS5003;51921;51.518;-3.188;2022-07-23T12:51:14;8;7;
60816;PMS5003;51921;51.518;-3.188;2022-07-23T12:53:39;9;9;
60816;PMS5003;51921;51.518;-3.188;2022-07-23T12:56:04;9;8;
60816;PMS5003;51921;51.518;-3.188;2022-07-23T13:00:54;6;6;
60816;PMS5003;51921;51.518;-3.188;2022-07-23T13:03:21;9;8;
60816;PMS5003;51921;51.518;-3.188;2022-07-23T13:05:44;4;4;
60816;PMS5003;51921;51.518;-3.188;2022-07-23T13:08:09;6;6;
60816;PMS5003;51921;51.518;-3.188;2022-07-23T13:10:35;6;5;
60816;PMS5003;51921;51.518;-3.188;2022-07-23T13:13:00;6;6;
60816;PMS5003;51921;51.518;-3.188;2022-07-23T13:15:25;4;4;
60816;PMS5003;51921;51.518;-3.188;2022-07-23T13:17:50;7;7;
60816;PMS5003;51921;51.518;-3.188;2022-07-23T13:20:16;6;6;
60816;PMS5003;51921;51.518;-3.188;2022-07-23T13:22:41;6;6;
60816;PMS5003;51921;51.518;-3.188;2022-07-23T13:25:07;6;5;
60816;PMS5003;51921;51.518;-3.188;2022-07-23T13:27:32;6;6;
60816;PMS5003;51921;51.518;-3.188;2022-07-23T13:29:57;6;6;
60816;PMS5003;51921;51.518;-3.188;2022-07-23T13:32:22;5;5;
60816;PMS5003;51921;51.518;-3.188;2022-07-23T13:34:48;4;4;
60816;PMS5003;51921;51.518;-3.188;2022-07-23T13:37:13;5;5;
60816;PMS5003;51921;51.518;-3.188;2022-07-23T13:39:38;5;5;
60816;PMS5003;51921;51.518;-3.188;2022-07-23T13:42:04;5;5;
60816;PMS5003;51921;51.518;-3.188;2022-07-23T13:44:29;4;4;
60816;PMS5003;51921;51.518;-3.188;2022-07-23T13:46:54;4;4;
60816;PMS5003;51921;51.518;-3.188;2022-07-23T13:49:20;5;4;
60816;PMS5003;51921;51.518;-3.188;2022-07-23T13:51:45;4;4;
60816;PMS5003;51921;51.518;-3.188;2022-07-23T13:54:11;6;5;
60816;PMS5003;51921;51.518;-3.188;2022-07-23T13:56:36;4;4;
60816;PMS5003;51921;51.518;-3.188;2022-07-23T13:59:02;4;4;
60816;PMS5003;51921;51.518;-3.188;2022-07-23T14:01:27;6;5;
60816;PMS5003;51921;51.518;-3.188;2022-07-23T14:03:52;6;6;
60816;PMS5003;51921;51.518;-3.188;2022-07-23T14:06:17;4;4;
60816;PMS5003;51921;51.518;-3.188;2022-07-23T14:08:43;5;5;
60816;PMS5003;51921;51.518;-3.188;2022-07-23T14:11:08;5;5;
60816;PMS5003;51921;51.518;-3.188;2022-07-23T14:13:33;7;7;
60816;PMS5003;51921;51.518;-3.188;2022-07-23T14:15:59;4;4;
60816;PMS5003;51921;51.518;-3.188;2022-07-23T14:18:24;7;7;
60816;PMS5003;51921;51.518;-3.188;2022-07-23T14:20:50;6;6;
60816;PMS5003;51921;51.518;-3.188;2022-07-23T14:23:15;4;4;
60816;PMS5003;51921;51.518;-3.188;2022-07-23T14:25:40;7;7;
60816;PMS5003;51921;51.518;-3.188;2022-07-23T14:28:06;6;6;
60816;PMS5003;51921;51.518;-3.188;2022-07-23T14:30:31;7;7;
60816;PMS5003;51921;51.518;-3.188;2022-07-23T14:32:56;7;6;
60816;PMS5003;51921;51.518;-3.188;2022-07-23T14:35:22;7;6;
60816;PMS5003;51921;51.518;-3.188;2022-07-23T14:37:50;5;4;
60816;PMS5003;51921;51.518;-3.188;2022-07-23T14:40:13;7;7;
60816;PMS5003;51921;51.518;-3.188;2022-07-23T14:42:38;6;6;
60816;PMS5003;51921;51.518;-3.188;2022-07-23T14:45:03;7;7;
60816;PMS5003;51921;51.518;-3.188;2022-07-23T14:47:29;6;6;
60816;PMS5003;51921;51.518;-3.188;2022-07-23T14:49:54;7;7;
60816;PMS5003;51921;51.518;-3.188;2022-07-23T14:52:19;5;5;
60816;PMS5003;51921;51.518;-3.188;2022-07-23T14:54:45;7;7;
60816;PMS5003;51921;51.518;-3.188;2022-07-23T14:57:10;7;7;
60816;PMS5003;51921;51.518;-3.188;2022-07-23T14:59:35;8;8;
60816;PMS5003;51921;51.518;-3.188;2022-07-23T15:02:00;7;6;
60816;PMS5003;51921;51.518;-3.188;2022-07-23T15:04:26;8;8;
60816;PMS5003;51921;51.518;-3.188;2022-07-23T15:06:51;9;9;
60816;PMS5003;51921;51.518;-3.188;2022-07-23T15:09:17;10;10;
60816;PMS5003;51921;51.518;-3.188;2022-07-23T15:11:42;10;10;
60816;PMS5003;51921;51.518;-3.188;2022-07-23T15:14:08;10;9;
60816;PMS5003;51921;51.518;-3.188;2022-07-23T15:16:33;8;8;
60816;PMS5003;51921;51.518;-3.188;2022-07-23T15:18:58;8;8;
60816;PMS5003;51921;51.518;-3.188;2022-07-23T15:21:24;9;9;
60816;PMS5003;51921;51.518;-3.188;2022-07-23T15:23:49;6;6;
60816;PMS5003;51921;51.518;-3.188;2022-07-23T15:26:14;6;6;
60816;PMS5003;51921;51.518;-3.188;2022-07-23T15:28:40;6;6;
60816;PMS5003;51921;51.518;-3.188;2022-07-23T15:31:05;7;7;
60816;PMS5003;51921;51.518;-3.188;2022-07-23T15:33:31;6;5;
60816;PMS5003;51921;51.518;-3.188;2022-07-23T15:35:56;8;8;
60816;PMS5003;51921;51.518;-3.188;2022-07-23T15:38:21;6;5;
60816;PMS5003;51921;51.518;-3.188;2022-07-23T15:40:47;8;8;
60816;PMS5003;51921;51.518;-3.188;2022-07-23T15:43:12;8;8;
60816;PMS5003;51921;51.518;-3.188;2022-07-23T15:45:38;8;7;
60816;PMS5003;51921;51.518;-3.188;2022-07-23T15:50:28;6;6;
60816;PMS5003;51921;51.518;-3.188;2022-07-23T15:52:53;6;5;
60816;PMS5003;51921;51.518;-3.188;2022-07-23T15:55:22;6;6;
60816;PMS5003;51921;51.518;-3.188;2022-07-23T15:57:44;8;7;
60816;PMS5003;51921;51.518;-3.188;2022-07-23T16:00:10;6;5;
60816;PMS5003;51921;51.518;-3.188;2022-07-23T16:02:35;6;6;
60816;PMS5003;51921;51.518;-3.188;2022-07-23T16:05:00;5;5;
60816;PMS5003;51921;51.518;-3.188;2022-07-23T16:07:26;4;4;
60816;PMS5003;51921;51.518;-3.188;2022-07-23T16:09:51;5;5;
60816;PMS5003;51921;51.518;-3.188;2022-07-23T16:12:16;5;5;
60816;PMS5003;51921;51.518;-3.188;2022-07-23T16:14:42;5;5;
60816;PMS5003;51921;51.518;-3.188;2022-07-23T16:17:07;6;6;
60816;PMS5003;51921;51.518;-3.188;2022-07-23T16:19:33;5;5;
60816;PMS5003;51921;51.518;-3.188;2022-07-23T16:21:58;5;5;
60816;PMS5003;51921;51.518;-3.188;2022-07-23T16:24:23;7;7;
60816;PMS5003;51921;51.518;-3.188;2022-07-23T16:26:48;7;6;
60816;PMS5003;51921;51.518;-3.188;2022-07-23T16:29:14;5;5;
60816;PMS5003;51921;51.518;-3.188;2022-07-23T16:31:43;6;6;
60816;PMS5003;51921;51.518;-3.188;2022-07-23T16:34:04;6;5;
60816;PMS5003;51921;51.518;-3.188;2022-07-23T16:36:30;6;6;
60816;PMS5003;51921;51.518;-3.188;2022-07-23T16:38:56;4;4;
60816;PMS5003;51921;51.518;-3.188;2022-07-23T16:41:21;5;4;
60816;PMS5003;51921;51.518;-3.188;2022-07-23T16:43:46;6;5;
60816;PMS5003;51921;51.518;-3.188;2022-07-23T16:46:11;7;6;
60816;PMS5003;51921;51.518;-3.188;2022-07-23T16:48:40;5;5;
60816;PMS5003;51921;51.518;-3.188;2022-07-23T16:51:02;4;4;